Holualoa, HI (96725)

10:56 PM HST on December 09, 2016 (GMT -1000)
Keopu Mauka | | Change Station

Elev 2142 ft 19.66 °N, 155.94 °W | Updated 12 seconds ago

Overcast
Overcast
66.2 °F
Feels Like 66.2 °F
N
1.8
Wind Variable Wind from South
Gusts 2.5 mph

Today
High -- | Low -- °F
--% Chance of Precip.
Yesterday
High -- | Low -- °F
Precip. -- in
Pressure 29.96 in
Visibility 10.0 miles
Clouds Few 7000 ft
Scattered Clouds 12000 ft
Dew Point 61 °F
Humidity 84%
Rainfall 0.20 in
Snow Depth Not available.
6:47 AM 5:45 PM
Waxing Gibbous, 82% visible
METAR PHKO 100853Z AUTO 36010KT 10SM FEW070 SCT120 23/19 A2996 RMK AO2 SLP145 T02330189 58012 TSNO
Pressure 29.96 in
Visibility 10.0 miles
Clouds Few 7000 ft
Scattered Clouds 12000 ft
Dew Point 61 °F
Humidity 84%
Rainfall 0.20 in
Snow Depth Not available.
6:47 AM 5:45 PM
Waxing Gibbous, 82% visible
METAR PHKO 100853Z AUTO 36010KT 10SM FEW070 SCT120 23/19 A2996 RMK AO2 SLP145 T02330189 58012 TSNO

10-Day Weather Forecast

Almanac

Astronomy

Dec. 09, 2016 Rise Set
Actual Time
Civil Twilight
Nautical Twilight
Astronomical Twilight
Moon
Length of Visible Light
Length of Day
Tomorrow will be .
, % of the Moon is Illuminated

Today's Extremes

State Highs State Lows

Community

WunderPhotos

Upload Photos

1,956,538 photos uploaded!

WunderBlog® & News

Nearby

Air Quality

  Air Quality AQ Index Pollutant
Not available.

Snow Depth

Station Depth Elevation

Earthquake Activity

City Distance Mag. Time & Date
Minimum magnitude displayed is 2.5.

Coastal Water Temperatures

Place Temperature

Stations

Nearby Weather Stations

Station Location Temp. Windchill Dew Point Humidity Wind Precip. Elev Updated Type
                   

Watches & Warnings

There are currently no watches in effect.